createdAt,value
2022-11-10T00:02:09.796Z,68.24
2022-11-10T00:04:55.160Z,68.76
2022-11-10T00:07:41.302Z,68.31
2022-11-10T00:10:26.931Z,67.93
2022-11-10T00:13:12.363Z,68.39
2022-11-10T00:16:23.949Z,69.36
2022-11-10T00:19:09.519Z,68.93
2022-11-10T00:21:55.453Z,69.33
2022-11-10T00:24:40.772Z,69.85
2022-11-10T00:27:26.088Z,68.44
2022-11-10T00:30:11.759Z,68.31
2022-11-10T00:32:57.118Z,67.88
2022-11-10T00:35:42.360Z,67.96
2022-11-10T00:38:27.956Z,67.36
2022-11-10T00:41:13.267Z,67.06
2022-11-10T00:43:58.962Z,68.05
2022-11-10T00:46:44.396Z,67.11
2022-11-10T00:49:29.951Z,67.45
2022-11-10T00:52:15.210Z,67.22
2022-11-10T00:55:00.620Z,67.25
2022-11-10T00:57:45.973Z,66.56
2022-11-10T01:00:31.511Z,66.89
2022-11-10T01:03:18.319Z,67.63
2022-11-10T01:06:09.148Z,68.12
2022-11-10T01:08:54.468Z,67.16
2022-11-10T01:11:39.914Z,67.88
2022-11-10T01:14:25.037Z,68.03
2022-11-10T01:17:10.368Z,68.27
2022-11-10T01:19:56.232Z,68.84
2022-11-10T01:22:41.974Z,69.19
2022-11-10T01:25:27.088Z,70.64
2022-11-10T01:28:12.362Z,70.49
2022-11-10T01:31:03.758Z,70.12
2022-11-10T01:33:49.452Z,69.53
2022-11-10T01:36:34.628Z,68.88
2022-11-10T01:39:19.984Z,68.48
2022-11-10T01:42:05.427Z,68.26
2022-11-10T01:45:24.723Z,67.39
2022-11-10T01:48:15.003Z,69.26
2022-11-10T01:51:06.123Z,69.05
2022-11-10T01:53:59.241Z,68.65
2022-11-10T01:56:48.611Z,69.06
2022-11-10T01:59:40.049Z,69.47
2022-11-10T02:02:48.843Z,69.02
2022-11-10T02:05:34.654Z,68.87
2022-11-10T02:08:21.483Z,68.16
2022-11-10T02:11:06.877Z,68.08
2022-11-10T02:13:53.310Z,68.54
2022-11-10T02:16:39.923Z,67.72
2022-11-10T02:19:27.108Z,68.93
2022-11-10T02:22:12.603Z,68.00
2022-11-10T02:24:58.442Z,68.16
2022-11-10T02:27:43.699Z,68.89
2022-11-10T02:30:29.266Z,69.28
2022-11-10T02:33:17.852Z,68.17
2022-11-10T02:36:03.707Z,69.57
2022-11-10T02:38:49.103Z,67.77
2022-11-10T02:41:34.456Z,68.07
2022-11-10T02:44:20.196Z,67.85
2022-11-10T02:47:06.305Z,68.57
2022-11-10T02:49:51.281Z,68.20
2022-11-10T02:52:36.816Z,68.26
2022-11-10T02:55:22.108Z,69.66
2022-11-10T02:58:07.592Z,69.60
2022-11-10T03:00:53.243Z,69.20
2022-11-10T03:03:38.514Z,68.86
2022-11-10T03:06:23.859Z,69.53
2022-11-10T03:09:09.143Z,69.93
2022-11-10T03:11:54.542Z,69.48
2022-11-10T03:14:39.979Z,69.69
2022-11-10T03:17:25.665Z,70.49
2022-11-10T03:20:11.044Z,70.17
2022-11-10T03:23:01.915Z,70.71
2022-11-10T03:25:47.283Z,72.08
2022-11-10T03:28:32.861Z,71.26
2022-11-10T03:31:17.914Z,72.39
2022-11-10T03:34:03.303Z,72.69
2022-11-10T03:36:48.704Z,73.07
2022-11-10T03:39:34.603Z,74.35
2022-11-10T03:42:19.997Z,75.10
2022-11-10T03:45:05.733Z,74.69
2022-11-10T03:47:51.223Z,72.97
2022-11-10T03:50:36.926Z,74.37
2022-11-10T03:53:22.665Z,73.48
2022-11-10T03:56:08.665Z,74.28
2022-11-10T03:58:53.996Z,74.84
2022-11-10T04:01:39.459Z,74.56
2022-11-10T04:04:43.765Z,75.29
2022-11-10T04:07:47.373Z,76.15
2022-11-10T04:10:36.088Z,74.69
2022-11-10T04:13:40.074Z,74.99
2022-11-10T04:16:25.818Z,76.39
2022-11-10T04:19:11.293Z,75.45
2022-11-10T04:21:57.201Z,76.38
2022-11-10T04:24:42.595Z,76.69
2022-11-10T04:27:27.962Z,75.76
2022-11-10T04:30:13.457Z,74.95
2022-11-10T04:32:58.847Z,75.26
2022-11-10T04:35:44.136Z,76.12
2022-11-10T04:38:29.649Z,76.45
2022-11-10T04:41:15.841Z,76.39
2022-11-10T04:44:01.964Z,76.37
2022-11-10T04:46:47.395Z,74.59
2022-11-10T04:49:32.727Z,76.38
2022-11-10T04:52:18.111Z,76.61
2022-11-10T04:55:03.662Z,77.63
2022-11-10T04:57:48.874Z,77.76
2022-11-10T05:00:35.538Z,77.84
2022-11-10T05:03:21.447Z,78.04
2022-11-10T05:06:07.415Z,78.07
2022-11-10T05:08:52.770Z,77.15
2022-11-10T05:11:38.126Z,78.99
2022-11-10T05:14:23.416Z,78.28
2022-11-10T05:17:08.861Z,78.52
2022-11-10T05:19:54.266Z,77.16
2022-11-10T05:22:39.708Z,77.58
2022-11-10T05:25:25.135Z,76.27
2022-11-10T05:28:12.843Z,77.59
2022-11-10T05:30:58.232Z,76.73
2022-11-10T05:33:43.585Z,78.37
2022-11-10T05:36:28.821Z,77.94
2022-11-10T05:39:14.258Z,78.09
2022-11-10T05:41:59.429Z,77.76
2022-11-10T05:44:44.913Z,76.48
2022-11-10T05:47:30.167Z,77.19
2022-11-10T05:50:16.624Z,75.26
2022-11-10T05:53:02.010Z,73.71
2022-11-10T05:55:47.301Z,73.44
2022-11-10T05:58:32.861Z,74.46
2022-11-10T06:01:18.177Z,73.32
2022-11-10T06:04:03.731Z,74.00
2022-11-10T06:06:49.532Z,73.66
2022-11-10T06:09:35.457Z,72.69
2022-11-10T06:12:21.868Z,72.82
2022-11-10T06:15:08.853Z,72.02
2022-11-10T06:17:55.201Z,72.07
2022-11-10T06:20:40.585Z,69.93
2022-11-10T06:23:26.013Z,67.78
2022-11-10T06:26:11.565Z,67.01
2022-11-10T06:28:57.864Z,64.14
2022-11-10T06:31:43.080Z,62.62
2022-11-10T06:34:28.753Z,62.14
2022-11-10T06:37:13.906Z,61.28
2022-11-10T06:39:59.251Z,59.28
2022-11-10T06:42:44.732Z,60.16
2022-11-10T06:45:30.309Z,58.33
2022-11-10T06:48:16.021Z,56.65
2022-11-10T06:51:02.816Z,57.27
2022-11-10T06:53:48.245Z,57.03
2022-11-10T06:56:34.854Z,57.31
2022-11-10T06:59:19.942Z,55.74
2022-11-10T07:02:05.382Z,56.22
2022-11-10T07:04:50.909Z,57.44
2022-11-10T07:07:36.477Z,57.71
2022-11-10T07:10:21.981Z,60.35
2022-11-10T07:13:07.409Z,58.13
2022-11-10T07:15:52.997Z,57.52
2022-11-10T07:18:38.786Z,55.76
2022-11-10T07:21:24.470Z,54.97
2022-11-10T07:24:10.005Z,54.62
2022-11-10T07:26:55.213Z,54.95
2022-11-10T07:29:40.678Z,53.90
2022-11-10T07:32:26.001Z,53.54
2022-11-10T07:35:11.334Z,52.07
2022-11-10T07:37:57.849Z,51.70
2022-11-10T07:40:43.399Z,52.45
2022-11-10T07:43:28.828Z,52.84
2022-11-10T07:46:14.033Z,52.29
2022-11-10T07:48:59.433Z,51.22
2022-11-10T07:51:44.905Z,50.76
2022-11-10T07:54:30.378Z,51.85
2022-11-10T07:57:15.748Z,52.33
2022-11-10T08:00:01.334Z,52.20
2022-11-10T08:02:46.776Z,51.01
2022-11-10T08:05:33.189Z,51.05
2022-11-10T08:08:19.171Z,51.05
2022-11-10T08:11:05.040Z,51.00
2022-11-10T08:13:50.577Z,50.55
2022-11-10T08:16:35.980Z,49.86
2022-11-10T08:19:21.507Z,48.79
2022-11-10T08:22:06.730Z,49.02
2022-11-10T08:24:52.209Z,49.72
2022-11-10T08:27:37.488Z,49.86
2022-11-10T08:30:22.908Z,49.53
2022-11-10T08:33:11.206Z,49.94
2022-11-10T08:35:56.276Z,50.19
2022-11-10T08:38:41.967Z,48.97
2022-11-10T08:41:27.135Z,48.65
2022-11-10T08:44:15.561Z,48.75
2022-11-10T08:47:04.929Z,48.32
2022-11-10T08:49:50.318Z,48.63
2022-11-10T08:52:35.770Z,48.61
2022-11-10T08:55:21.936Z,47.01
2022-11-10T08:58:10.371Z,47.02
2022-11-10T09:00:56.778Z,46.15
2022-11-10T09:03:42.370Z,45.24
2022-11-10T09:06:27.948Z,43.85
2022-11-10T09:09:13.463Z,44.45
2022-11-10T09:11:59.035Z,43.77
2022-11-10T09:14:44.481Z,44.65
2022-11-10T09:17:29.763Z,44.97
2022-11-10T09:20:15.509Z,43.49
2022-11-10T09:23:09.857Z,45.19
2022-11-10T09:25:56.515Z,45.11
2022-11-10T09:28:41.923Z,44.92
2022-11-10T09:31:27.237Z,44.73
2022-11-10T09:34:12.691Z,44.13
2022-11-10T09:36:58.063Z,45.08
2022-11-10T09:39:43.422Z,44.34
2022-11-10T09:42:36.880Z,45.19
2022-11-10T09:45:39.531Z,46.03
2022-11-10T09:48:31.413Z,46.27
2022-11-10T09:51:31.787Z,46.04
2022-11-10T09:54:39.467Z,44.98
2022-11-10T09:57:26.734Z,43.80
2022-11-10T10:00:17.364Z,43.99
2022-11-10T10:03:06.180Z,43.07
2022-11-10T10:06:11.099Z,43.69
2022-11-10T10:09:18.053Z,43.75
2022-11-10T10:12:25.757Z,44.47
2022-11-10T10:15:44.691Z,43.68
2022-11-10T10:18:49.585Z,43.69
2022-11-10T10:21:47.709Z,42.64
2022-11-10T10:24:34.760Z,42.34
2022-11-10T10:27:23.922Z,43.01
2022-11-10T10:30:18.601Z,44.30
2022-11-10T10:33:21.378Z,43.32
2022-11-10T10:36:15.379Z,42.55
2022-11-10T10:39:06.426Z,42.83
2022-11-10T10:41:51.855Z,42.77
2022-11-10T10:44:37.254Z,43.15
2022-11-10T10:47:37.078Z,41.83
2022-11-10T10:50:27.865Z,41.89
2022-11-10T10:53:19.173Z,42.37
2022-11-10T10:56:18.256Z,40.69
2022-11-10T10:59:06.058Z,41.02
2022-11-10T11:01:55.832Z,39.81
2022-11-10T11:04:42.306Z,40.57
2022-11-10T11:07:27.484Z,41.52
2022-11-10T11:10:24.880Z,42.39
2022-11-10T11:13:25.752Z,43.32
2022-11-10T11:16:12.754Z,41.78
2022-11-10T11:18:59.064Z,42.50
2022-11-10T11:22:01.013Z,41.76
2022-11-10T11:25:07.165Z,41.61
2022-11-10T11:28:03.752Z,41.74
2022-11-10T11:31:08.241Z,41.05
2022-11-10T11:34:13.099Z,42.32
2022-11-10T11:37:19.461Z,43.07
2022-11-10T11:40:28.975Z,41.41
2022-11-10T11:43:14.337Z,40.67
2022-11-10T11:46:02.715Z,41.25
2022-11-10T11:48:56.710Z,41.67
2022-11-10T11:52:00.487Z,41.63
2022-11-10T11:55:20.883Z,41.02
2022-11-10T11:58:27.517Z,41.85
2022-11-10T12:01:41.072Z,41.75
2022-11-10T12:04:46.554Z,40.18
2022-11-10T12:08:00.603Z,42.32
2022-11-10T12:11:08.061Z,43.30
2022-11-10T12:14:15.277Z,42.26
2022-11-10T12:17:05.881Z,43.64
2022-11-10T12:20:00.253Z,42.68
2022-11-10T12:22:51.870Z,42.40
2022-11-10T12:26:01.585Z,42.60
2022-11-10T12:28:54.958Z,41.75
2022-11-10T12:31:45.298Z,41.03
2022-11-10T12:34:38.971Z,41.99
2022-11-10T12:37:38.511Z,42.05
2022-11-10T12:40:30.760Z,42.33
2022-11-10T12:43:34.780Z,41.89
2022-11-10T12:46:20.495Z,41.80
2022-11-10T12:49:18.506Z,41.32
2022-11-10T12:52:39.116Z,41.25
2022-11-10T12:55:42.930Z,41.33
2022-11-10T12:58:28.949Z,42.27
2022-11-10T13:01:20.379Z,41.37
2022-11-10T13:04:05.927Z,42.29
2022-11-10T13:06:57.737Z,42.39
2022-11-10T13:09:44.141Z,43.30
2022-11-10T13:12:29.527Z,41.93
2022-11-10T13:15:40.218Z,42.52
2022-11-10T13:18:31.728Z,43.25
2022-11-10T13:21:17.213Z,42.93
2022-11-10T13:24:02.765Z,43.01
2022-11-10T13:26:56.004Z,43.88
2022-11-10T13:29:47.790Z,44.34
2022-11-10T13:32:34.243Z,44.58
2022-11-10T13:35:29.069Z,43.65
2022-11-10T13:38:32.710Z,42.68
2022-11-10T13:41:17.803Z,44.19
2022-11-10T13:44:03.522Z,44.67
2022-11-10T13:47:09.723Z,44.69
2022-11-10T13:50:43.335Z,45.44
2022-11-10T13:53:49.821Z,45.38
2022-11-10T13:56:50.752Z,46.17
2022-11-10T13:59:50.566Z,45.97
2022-11-10T14:02:41.832Z,45.32
2022-11-10T14:05:37.906Z,45.92
2022-11-10T14:08:27.998Z,46.56
2022-11-10T14:11:16.124Z,47.26
2022-11-10T14:14:10.834Z,46.98
2022-11-10T14:16:56.584Z,47.40
2022-11-10T14:19:44.283Z,48.40
2022-11-10T14:22:42.367Z,48.74
2022-11-10T14:25:36.756Z,48.90
2022-11-10T14:28:29.761Z,48.96
2022-11-10T14:31:36.182Z,49.31
2022-11-10T14:34:23.831Z,49.75
2022-11-10T14:37:17.495Z,50.29
2022-11-10T14:40:04.308Z,50.89
2022-11-10T14:42:49.799Z,50.96
2022-11-10T14:45:35.422Z,51.39
2022-11-10T14:48:24.113Z,51.55
2022-11-10T14:51:18.540Z,52.31
2022-11-10T14:54:04.209Z,51.67
2022-11-10T14:56:49.923Z,52.40
2022-11-10T14:59:37.562Z,52.59
2022-11-10T15:02:23.090Z,53.42
2022-11-10T15:05:14.651Z,53.85
2022-11-10T15:08:02.929Z,54.02
2022-11-10T15:10:53.312Z,54.29
2022-11-10T15:13:39.652Z,53.97
2022-11-10T15:16:30.308Z,54.46
2022-11-10T15:19:36.445Z,54.91
2022-11-10T15:22:32.701Z,55.21
2022-11-10T15:25:22.281Z,54.70
2022-11-10T15:28:14.017Z,55.42
2022-11-10T15:31:05.786Z,55.16
2022-11-10T15:33:57.435Z,55.50
2022-11-10T15:36:42.738Z,55.54
2022-11-10T15:39:28.870Z,56.06
2022-11-10T15:42:23.871Z,55.81
2022-11-10T15:45:09.591Z,55.71
2022-11-10T15:47:56.263Z,55.38
2022-11-10T15:50:49.053Z,55.11
2022-11-10T15:53:38.719Z,55.59
2022-11-10T15:56:24.906Z,55.66
2022-11-10T15:59:10.949Z,55.26
2022-11-10T16:01:56.583Z,54.77
2022-11-10T16:04:42.414Z,55.61
2022-11-10T16:07:27.998Z,55.30
2022-11-10T16:10:13.370Z,55.65
2022-11-10T16:12:58.863Z,55.53
2022-11-10T16:15:45.409Z,56.00
2022-11-10T16:18:31.492Z,55.95
2022-11-10T16:21:20.046Z,56.61
2022-11-10T16:24:05.564Z,55.42
2022-11-10T16:26:51.008Z,55.54
2022-11-10T16:29:36.617Z,56.13
2022-11-10T16:32:22.312Z,55.66
2022-11-10T16:35:13.769Z,56.78
2022-11-10T16:37:59.458Z,56.93
2022-11-10T16:40:46.130Z,57.13
2022-11-10T16:43:31.665Z,57.10
2022-11-10T16:46:23.393Z,57.50
2022-11-10T16:49:23.247Z,58.28
2022-11-10T16:52:15.351Z,57.75
2022-11-10T16:55:00.665Z,58.53
2022-11-10T16:57:46.161Z,57.73
2022-11-10T17:00:32.963Z,56.97
2022-11-10T17:03:26.273Z,57.21
2022-11-10T17:06:13.737Z,56.92
2022-11-10T17:09:08.128Z,57.39
2022-11-10T17:11:53.592Z,57.44
2022-11-10T17:14:39.036Z,58.90
2022-11-10T17:17:24.892Z,59.46
2022-11-10T17:20:27.710Z,59.08
2022-11-10T17:23:15.892Z,59.17
2022-11-10T17:26:01.999Z,58.85
2022-11-10T17:28:47.525Z,58.62
2022-11-10T17:31:34.092Z,58.91
2022-11-10T17:34:19.761Z,59.06
2022-11-10T17:37:05.903Z,59.42
2022-11-10T17:39:51.549Z,60.53
2022-11-10T17:42:39.151Z,59.94
2022-11-10T17:45:26.948Z,59.36
2022-11-10T17:48:12.727Z,60.51
2022-11-10T17:50:58.010Z,60.67
2022-11-10T17:53:43.696Z,60.50
2022-11-10T17:56:30.002Z,60.37
2022-11-10T17:59:15.235Z,60.29
2022-11-10T18:02:01.167Z,60.79
2022-11-10T18:04:46.838Z,60.10
2022-11-10T18:07:32.417Z,60.42
2022-11-10T18:10:18.616Z,59.72
2022-11-10T18:13:04.530Z,60.19
2022-11-10T18:15:50.516Z,59.37
2022-11-10T18:18:37.325Z,59.62
2022-11-10T18:21:23.041Z,60.35
2022-11-10T18:24:08.619Z,61.11
2022-11-10T18:26:53.815Z,60.87
2022-11-10T18:29:39.213Z,60.69
2022-11-10T18:32:24.956Z,60.11
2022-11-10T18:35:10.150Z,60.57
2022-11-10T18:37:55.361Z,61.32
2022-11-10T18:40:40.798Z,60.85
2022-11-10T18:43:26.246Z,60.68
2022-11-10T18:46:11.584Z,60.31
2022-11-10T18:48:57.397Z,60.35
2022-11-10T18:51:42.744Z,61.72
2022-11-10T18:54:28.094Z,61.71
2022-11-10T18:57:16.408Z,61.83
2022-11-10T19:00:02.197Z,62.57
2022-11-10T19:02:47.768Z,62.71
2022-11-10T19:05:33.389Z,63.18
2022-11-10T19:08:18.928Z,63.08
2022-11-10T19:11:09.621Z,62.11
2022-11-10T19:13:54.730Z,62.92
2022-11-10T19:16:40.118Z,62.61
2022-11-10T19:19:25.482Z,62.53
2022-11-10T19:22:11.166Z,62.79
2022-11-10T19:25:11.815Z,62.65
2022-11-10T19:27:58.260Z,63.62
2022-11-10T19:30:43.678Z,63.33
2022-11-10T19:33:34.111Z,63.79
2022-11-10T19:36:24.566Z,63.48
2022-11-10T19:39:10.219Z,62.93
2022-11-10T19:41:55.317Z,62.92
2022-11-10T19:44:40.626Z,63.21
2022-11-10T19:47:26.292Z,64.03
2022-11-10T19:50:11.464Z,63.39
2022-11-10T19:52:56.686Z,64.34
2022-11-10T19:55:42.045Z,64.10
2022-11-10T19:58:27.426Z,63.84
2022-11-10T20:01:14.357Z,63.40
2022-11-10T20:04:00.922Z,63.14
2022-11-10T20:06:46.564Z,63.01
2022-11-10T20:09:31.960Z,63.45
2022-11-10T20:12:17.372Z,63.71
2022-11-10T20:15:02.715Z,63.43
2022-11-10T20:17:48.299Z,63.81
2022-11-10T20:20:33.999Z,63.71
2022-11-10T20:23:19.458Z,63.10
2022-11-10T20:26:07.451Z,63.03
2022-11-10T20:28:53.248Z,63.47
2022-11-10T20:31:38.804Z,63.26
2022-11-10T20:34:24.268Z,62.63
2022-11-10T20:37:09.889Z,62.90
2022-11-10T20:39:55.203Z,62.87
2022-11-10T20:42:42.802Z,63.84
2022-11-10T20:45:28.733Z,64.60
2022-11-10T20:48:14.739Z,64.69
2022-11-10T20:51:01.015Z,65.36
2022-11-10T20:53:47.381Z,64.28
2022-11-10T20:56:32.393Z,63.35
2022-11-10T20:59:17.724Z,62.42
2022-11-10T21:02:03.266Z,62.43
2022-11-10T21:04:48.478Z,63.20
2022-11-10T21:07:33.911Z,63.22
2022-11-10T21:10:19.268Z,64.27
2022-11-10T21:13:05.390Z,64.18
2022-11-10T21:15:53.025Z,63.78
2022-11-10T21:18:38.304Z,63.91
2022-11-10T21:21:34.553Z,64.44
2022-11-10T21:24:20.630Z,65.19
2022-11-10T21:27:06.124Z,65.76
2022-11-10T21:29:52.014Z,66.18
2022-11-10T21:32:37.418Z,65.11
2022-11-10T21:35:23.126Z,65.07
2022-11-10T21:38:11.726Z,65.00
2022-11-10T21:40:57.880Z,64.81
2022-11-10T21:43:42.901Z,65.35
2022-11-10T21:46:28.235Z,65.87
2022-11-10T21:49:13.660Z,65.31
2022-11-10T21:51:58.943Z,65.86
2022-11-10T21:54:44.290Z,66.37
2022-11-10T21:57:29.650Z,67.08
2022-11-10T22:00:15.394Z,67.03
2022-11-10T22:03:05.829Z,69.05
2022-11-10T22:05:51.653Z,68.02
2022-11-10T22:08:38.333Z,68.80
2022-11-10T22:11:41.941Z,68.65
2022-11-10T22:14:45.303Z,68.75
2022-11-10T22:17:49.234Z,69.31
2022-11-10T22:20:34.737Z,68.29
2022-11-10T22:23:40.137Z,68.84
2022-11-10T22:26:25.590Z,67.26
2022-11-10T22:29:11.072Z,66.95
2022-11-10T22:31:57.016Z,67.35
2022-11-10T22:34:42.485Z,68.66
2022-11-10T22:37:33.171Z,69.08
2022-11-10T22:40:37.137Z,69.32
2022-11-10T22:43:40.681Z,70.24
2022-11-10T22:46:26.035Z,70.22
2022-11-10T22:49:16.027Z,69.20
2022-11-10T22:52:01.530Z,68.86
2022-11-10T22:54:46.665Z,69.14
2022-11-10T22:57:32.020Z,70.40
2022-11-10T23:00:17.832Z,69.66
2022-11-10T23:03:03.493Z,69.90
2022-11-10T23:05:56.032Z,68.45
2022-11-10T23:08:43.006Z,68.65
2022-11-10T23:11:30.727Z,67.90
2022-11-10T23:14:15.782Z,66.73
2022-11-10T23:17:01.209Z,67.79
2022-11-10T23:19:46.648Z,66.89
2022-11-10T23:22:32.195Z,67.68
2022-11-10T23:25:17.605Z,67.95
2022-11-10T23:28:02.932Z,66.91
2022-11-10T23:30:48.281Z,67.58
2022-11-10T23:33:34.562Z,66.78
2022-11-10T23:36:21.484Z,66.95
2022-11-10T23:39:06.923Z,66.96
2022-11-10T23:41:52.200Z,67.50
2022-11-10T23:44:37.624Z,67.16
2022-11-10T23:47:23.063Z,67.43
2022-11-10T23:50:09.019Z,67.14
2022-11-10T23:52:54.860Z,68.10
2022-11-10T23:55:40.834Z,69.11
2022-11-10T23:58:26.204Z,68.65
